createdAt,value
2023-05-13T00:01:41.837Z,4.00
2023-05-13T00:04:09.864Z,4.20
2023-05-13T00:06:38.141Z,3.60
2023-05-13T00:09:06.573Z,3.80
2023-05-13T00:11:34.933Z,3.80
2023-05-13T00:14:03.128Z,4.00
2023-05-13T00:16:31.223Z,3.80
2023-05-13T00:18:59.266Z,3.60
2023-05-13T00:21:27.728Z,3.50
2023-05-13T00:23:55.768Z,3.40
2023-05-13T00:26:23.899Z,3.50
2023-05-13T00:28:52.063Z,3.40
2023-05-13T00:31:20.096Z,3.60
2023-05-13T00:33:48.314Z,3.40
2023-05-13T00:36:16.430Z,3.70
2023-05-13T00:38:44.558Z,3.60
2023-05-13T00:41:12.975Z,3.40
2023-05-13T00:43:41.090Z,3.40
2023-05-13T00:46:09.535Z,3.40
2023-05-13T00:48:38.759Z,3.30
2023-05-13T00:51:07.995Z,3.50
2023-05-13T00:53:37.454Z,3.40
2023-05-13T00:56:05.708Z,3.40
2023-05-13T00:58:33.960Z,3.40
2023-05-13T01:01:29.788Z,3.30
2023-05-13T01:04:31.145Z,3.40
2023-05-13T01:07:17.996Z,3.40
2023-05-13T01:10:08.369Z,3.50
2023-05-13T01:12:43.864Z,3.70
2023-05-13T01:15:21.697Z,3.80
2023-05-13T01:18:06.783Z,3.70
2023-05-13T01:20:35.582Z,3.50
2023-05-13T01:23:04.328Z,3.50
2023-05-13T01:25:32.450Z,3.60
2023-05-13T01:28:00.596Z,4.00
2023-05-13T01:30:28.693Z,3.40
2023-05-13T01:32:56.879Z,3.50
2023-05-13T01:35:25.687Z,3.20
2023-05-13T01:37:54.876Z,3.40
2023-05-13T01:40:32.390Z,3.90
2023-05-13T01:43:01.212Z,3.90
2023-05-13T01:45:30.370Z,3.80
2023-05-13T01:47:58.406Z,3.40
2023-05-13T01:50:26.612Z,3.30
2023-05-13T01:52:54.863Z,3.40
2023-05-13T01:55:23.237Z,3.30
2023-05-13T01:57:51.338Z,3.60
2023-05-13T02:00:19.718Z,3.30
2023-05-13T02:02:48.279Z,3.30
2023-05-13T02:05:17.061Z,3.60
2023-05-13T02:07:45.191Z,3.60
2023-05-13T02:10:13.335Z,3.30
2023-05-13T02:12:41.591Z,3.80
2023-05-13T02:15:10.227Z,3.90
2023-05-13T02:17:38.355Z,3.20
2023-05-13T02:20:07.401Z,3.50
2023-05-13T02:22:35.589Z,3.40
2023-05-13T02:25:04.491Z,3.90
2023-05-13T02:27:32.594Z,3.30
2023-05-13T02:30:00.703Z,3.70
2023-05-13T02:32:28.835Z,3.60
2023-05-13T02:34:56.925Z,3.70
2023-05-13T02:37:24.995Z,3.50
2023-05-13T02:39:53.563Z,3.90
2023-05-13T02:42:21.636Z,3.80
2023-05-13T02:44:49.827Z,3.20
2023-05-13T02:47:17.862Z,3.70
2023-05-13T02:49:46.101Z,3.50
2023-05-13T02:52:14.190Z,3.60
2023-05-13T02:54:42.242Z,3.40
2023-05-13T02:57:10.283Z,3.60
2023-05-13T02:59:38.390Z,3.20
2023-05-13T03:02:06.537Z,3.40
2023-05-13T03:04:34.700Z,3.30
2023-05-13T03:07:02.755Z,3.80
2023-05-13T03:09:31.767Z,3.40
2023-05-13T03:11:59.848Z,3.30
2023-05-13T03:14:28.302Z,3.90
2023-05-13T03:16:56.443Z,3.60
2023-05-13T03:19:24.517Z,3.60
2023-05-13T03:21:53.009Z,3.50
2023-05-13T03:24:21.137Z,3.50
2023-05-13T03:26:49.863Z,3.50
2023-05-13T03:29:17.970Z,3.40
2023-05-13T03:31:46.170Z,3.50
2023-05-13T03:34:14.359Z,3.80
2023-05-13T03:36:42.438Z,3.50
2023-05-13T03:39:10.614Z,4.20
2023-05-13T03:41:38.738Z,3.60
2023-05-13T03:44:06.722Z,3.60
2023-05-13T03:46:34.827Z,4.30
2023-05-13T03:49:03.367Z,3.90
2023-05-13T03:51:33.236Z,3.90
2023-05-13T03:54:02.304Z,3.80
2023-05-13T03:56:30.472Z,4.00
2023-05-13T03:58:58.519Z,4.00
2023-05-13T04:01:26.579Z,4.00
2023-05-13T04:03:54.603Z,3.80
2023-05-13T04:06:22.717Z,3.70
2023-05-13T04:08:51.605Z,3.90
2023-05-13T04:11:19.946Z,3.90
2023-05-13T04:13:48.287Z,4.10
2023-05-13T04:16:17.523Z,3.50
2023-05-13T04:18:45.724Z,3.40
2023-05-13T04:21:13.828Z,4.10
2023-05-13T04:23:42.528Z,3.80
2023-05-13T04:26:11.385Z,3.60
2023-05-13T04:28:39.430Z,3.70
2023-05-13T04:31:07.504Z,3.50
2023-05-13T04:33:35.565Z,3.60
2023-05-13T04:36:03.836Z,3.30
2023-05-13T04:38:32.140Z,3.50
2023-05-13T04:41:00.198Z,3.20
2023-05-13T04:43:28.207Z,3.30
2023-05-13T04:45:56.299Z,3.30
2023-05-13T04:48:28.034Z,3.50
2023-05-13T04:50:56.839Z,3.40
2023-05-13T04:53:25.542Z,3.50
2023-05-13T04:56:00.718Z,3.10
2023-05-13T04:58:28.998Z,3.20
2023-05-13T05:00:57.636Z,2.90
2023-05-13T05:03:25.772Z,3.40
2023-05-13T05:05:53.840Z,3.20
2023-05-13T05:08:21.881Z,3.40
2023-05-13T05:10:49.974Z,3.10
2023-05-13T05:13:17.986Z,3.40
2023-05-13T05:15:46.269Z,3.30
2023-05-13T05:18:14.326Z,3.40
2023-05-13T05:20:42.436Z,3.40
2023-05-13T05:23:10.811Z,3.10
2023-05-13T05:25:38.870Z,3.60
2023-05-13T05:28:06.874Z,3.90
2023-05-13T05:30:39.869Z,3.60
2023-05-13T05:33:08.674Z,3.60
2023-05-13T05:35:38.410Z,3.80
2023-05-13T05:38:07.899Z,3.90
2023-05-13T05:40:39.664Z,3.80
2023-05-13T05:43:08.885Z,4.00
2023-05-13T05:45:40.571Z,3.80
2023-05-13T05:48:08.866Z,3.60
2023-05-13T05:50:37.059Z,3.70
2023-05-13T05:53:07.130Z,3.70
2023-05-13T05:55:35.159Z,3.90
2023-05-13T05:58:05.797Z,4.00
2023-05-13T06:03:02.307Z,3.80
2023-05-13T06:05:30.484Z,3.30
2023-05-13T06:07:58.523Z,4.00
2023-05-13T06:10:26.730Z,3.60
2023-05-13T06:12:54.925Z,3.80
2023-05-13T06:15:23.207Z,3.90
2023-05-13T06:17:51.228Z,3.50
2023-05-13T06:20:19.741Z,7.20
2023-05-13T06:22:48.350Z,5.30
2023-05-13T06:25:16.658Z,4.70
2023-05-13T06:27:44.701Z,4.90
2023-05-13T06:30:13.075Z,5.80
2023-05-13T06:32:47.567Z,5.20
2023-05-13T06:35:25.750Z,4.40
2023-05-13T06:37:54.015Z,3.70
2023-05-13T06:40:22.452Z,3.80
2023-05-13T06:42:50.796Z,4.10
2023-05-13T06:45:23.303Z,4.20
2023-05-13T06:47:52.240Z,3.70
2023-05-13T06:50:20.834Z,4.10
2023-05-13T06:52:49.086Z,3.60
2023-05-13T06:55:19.140Z,3.70
2023-05-13T06:57:47.530Z,4.00
2023-05-13T07:00:16.330Z,3.80
2023-05-13T07:02:44.613Z,4.30
2023-05-13T07:05:13.174Z,3.40
2023-05-13T07:07:42.402Z,4.20
2023-05-13T07:10:11.047Z,3.50
2023-05-13T07:12:39.113Z,4.10
2023-05-13T07:15:07.677Z,3.90
2023-05-13T07:17:35.793Z,3.70
2023-05-13T07:20:04.171Z,4.20
2023-05-13T07:22:32.297Z,4.30
2023-05-13T07:25:00.410Z,5.80
2023-05-13T07:27:28.465Z,4.80
2023-05-13T07:29:56.619Z,3.50
2023-05-13T07:32:24.662Z,4.20
2023-05-13T07:34:52.800Z,3.60
2023-05-13T07:37:20.922Z,4.50
2023-05-13T07:39:49.047Z,4.20
2023-05-13T07:42:17.179Z,4.00
2023-05-13T07:44:45.605Z,4.00
2023-05-13T07:47:14.299Z,4.30
2023-05-13T07:49:42.331Z,3.50
2023-05-13T07:52:10.442Z,9.20
2023-05-13T07:54:38.462Z,3.80
2023-05-13T07:57:06.725Z,3.00
2023-05-13T07:59:34.854Z,6.60
2023-05-13T08:02:03.135Z,5.90
2023-05-13T08:04:31.238Z,5.00
2023-05-13T08:06:59.317Z,4.50
2023-05-13T08:09:27.776Z,4.40
2023-05-13T08:11:56.272Z,5.00
2023-05-13T08:14:24.379Z,4.60
2023-05-13T08:16:53.087Z,5.70
2023-05-13T08:19:21.330Z,4.30
2023-05-13T08:21:49.395Z,4.40
2023-05-13T08:24:17.438Z,4.30
2023-05-13T08:26:45.467Z,4.40
2023-05-13T08:29:15.772Z,9.30
2023-05-13T08:31:43.967Z,8.30
2023-05-13T08:34:12.132Z,6.60
2023-05-13T08:36:40.288Z,4.90
2023-05-13T08:39:08.391Z,5.90
2023-05-13T08:41:37.949Z,5.10
2023-05-13T08:44:07.664Z,5.40
2023-05-13T08:46:38.122Z,4.20
2023-05-13T08:49:07.643Z,3.30
2023-05-13T08:51:35.810Z,4.50
2023-05-13T08:54:03.924Z,4.40
2023-05-13T08:56:32.053Z,3.90
2023-05-13T08:59:00.253Z,3.50
2023-05-13T09:01:30.171Z,3.10
2023-05-13T09:04:01.474Z,3.60
2023-05-13T09:06:29.799Z,5.80
2023-05-13T09:08:58.002Z,3.30
2023-05-13T09:11:26.942Z,4.10
2023-05-13T09:13:59.476Z,3.50
2023-05-13T09:16:30.539Z,3.60
2023-05-13T09:19:00.994Z,3.20
2023-05-13T09:21:35.554Z,3.40
2023-05-13T09:24:12.021Z,3.00
2023-05-13T09:26:42.273Z,3.30
2023-05-13T09:29:26.972Z,3.80
2023-05-13T09:31:57.952Z,3.40
2023-05-13T09:34:34.622Z,4.20
2023-05-13T09:37:07.398Z,4.00
2023-05-13T09:39:41.592Z,4.00
2023-05-13T09:42:19.599Z,4.10
2023-05-13T09:44:49.110Z,4.20
2023-05-13T09:47:18.074Z,6.60
2023-05-13T09:49:56.526Z,4.50
2023-05-13T09:52:24.570Z,3.20
2023-05-13T09:54:52.644Z,4.50
2023-05-13T09:57:21.184Z,3.50
2023-05-13T09:59:49.201Z,3.90
2023-05-13T10:02:18.533Z,3.40
2023-05-13T10:04:47.019Z,2.80
2023-05-13T10:07:15.217Z,3.00
2023-05-13T10:09:46.141Z,3.30
2023-05-13T10:12:14.952Z,3.30
2023-05-13T10:14:44.130Z,3.20
2023-05-13T10:17:12.918Z,3.00
2023-05-13T10:19:41.128Z,2.70
2023-05-13T10:22:10.325Z,3.10
2023-05-13T10:24:39.496Z,3.30
2023-05-13T10:27:08.558Z,2.90
2023-05-13T10:29:38.132Z,3.10
2023-05-13T10:32:08.314Z,2.60
2023-05-13T10:34:38.556Z,3.90
2023-05-13T10:37:29.622Z,2.60
2023-05-13T10:40:03.567Z,3.60
2023-05-13T10:42:45.528Z,3.30
2023-05-13T10:45:16.924Z,3.10
2023-05-13T10:47:51.389Z,4.20
2023-05-13T10:50:26.058Z,3.30
2023-05-13T10:52:58.848Z,3.90
2023-05-13T10:55:28.419Z,3.30
2023-05-13T10:58:28.962Z,3.80
2023-05-13T11:01:17.217Z,3.50
2023-05-13T11:04:15.212Z,2.90
2023-05-13T11:06:46.539Z,3.20
2023-05-13T11:09:31.223Z,3.20
2023-05-13T11:12:00.345Z,3.40
2023-05-13T11:14:31.003Z,3.50
2023-05-13T11:17:02.208Z,3.70
2023-05-13T11:19:39.176Z,3.50
2023-05-13T11:22:12.970Z,2.90
2023-05-13T11:24:44.514Z,3.10
2023-05-13T11:27:15.855Z,2.80
2023-05-13T11:29:57.716Z,2.90
2023-05-13T11:32:53.684Z,2.90
2023-05-13T11:35:23.470Z,2.90
2023-05-13T11:37:51.759Z,2.70
2023-05-13T11:40:24.100Z,3.10
2023-05-13T11:42:53.386Z,2.60
2023-05-13T11:45:24.406Z,2.20
2023-05-13T11:47:53.921Z,2.70
2023-05-13T11:50:21.877Z,2.50
2023-05-13T11:52:55.564Z,2.30
2023-05-13T11:55:31.240Z,2.70
2023-05-13T11:58:00.003Z,2.40
2023-05-13T12:00:33.158Z,2.20
2023-05-13T12:03:09.270Z,2.70
2023-05-13T12:05:38.248Z,2.40
2023-05-13T12:08:09.734Z,1.90
2023-05-13T12:10:43.853Z,2.20
2023-05-13T12:13:12.483Z,2.20
2023-05-13T12:15:42.051Z,2.30
2023-05-13T12:18:10.495Z,2.20
2023-05-13T12:20:38.715Z,2.70
2023-05-13T12:23:06.824Z,2.40
2023-05-13T12:25:45.938Z,2.00
2023-05-13T12:28:22.155Z,2.30
2023-05-13T12:31:00.149Z,2.40
2023-05-13T12:33:46.987Z,2.60
2023-05-13T12:36:35.999Z,2.00
2023-05-13T12:39:11.241Z,2.30
2023-05-13T12:41:41.484Z,2.60
2023-05-13T12:44:10.649Z,2.30
2023-05-13T12:46:39.971Z,2.10
2023-05-13T12:49:09.646Z,2.00
2023-05-13T12:51:37.819Z,2.10
2023-05-13T12:54:06.091Z,1.90
2023-05-13T12:56:34.183Z,2.00
2023-05-13T12:59:02.362Z,2.20
2023-05-13T13:01:30.555Z,2.10
2023-05-13T13:03:58.749Z,1.90
2023-05-13T13:06:27.095Z,2.00
2023-05-13T13:08:55.193Z,1.90
2023-05-13T13:11:23.485Z,2.00
2023-05-13T13:13:51.676Z,2.10
2023-05-13T13:16:19.945Z,2.10
2023-05-13T13:18:48.262Z,2.00
2023-05-13T13:21:16.329Z,2.10
2023-05-13T13:23:44.512Z,2.10
2023-05-13T13:26:12.707Z,2.00
2023-05-13T13:28:40.861Z,2.60
2023-05-13T13:31:08.984Z,1.80
2023-05-13T13:33:37.055Z,1.80
2023-05-13T13:36:05.388Z,2.00
2023-05-13T13:38:33.521Z,2.30
2023-05-13T13:41:01.566Z,2.40
2023-05-13T13:43:29.606Z,2.30
2023-05-13T13:45:57.804Z,2.10
2023-05-13T13:48:25.949Z,2.30
2023-05-13T13:50:55.143Z,2.20
2023-05-13T13:53:23.268Z,2.20
2023-05-13T13:55:51.345Z,2.40
2023-05-13T13:58:19.492Z,1.90
2023-05-13T14:00:47.642Z,2.10
2023-05-13T14:03:15.807Z,2.00
2023-05-13T14:05:44.500Z,2.20
2023-05-13T14:08:12.640Z,1.90
2023-05-13T14:10:40.784Z,1.90
2023-05-13T14:13:08.786Z,1.80
2023-05-13T14:15:39.350Z,2.10
2023-05-13T14:20:36.654Z,2.20
2023-05-13T14:23:05.504Z,1.90
2023-05-13T14:25:33.813Z,2.30
2023-05-13T14:28:01.900Z,2.30
2023-05-13T14:30:30.038Z,2.10
2023-05-13T14:33:00.341Z,2.20
2023-05-13T14:35:28.903Z,2.40
2023-05-13T14:37:57.116Z,2.20
2023-05-13T14:40:25.184Z,2.10
2023-05-13T14:42:53.299Z,2.30
2023-05-13T14:45:21.386Z,2.10
2023-05-13T14:47:53.896Z,2.10
2023-05-13T14:50:22.545Z,2.20
2023-05-13T14:52:51.071Z,2.10
2023-05-13T14:55:19.649Z,2.00
2023-05-13T14:57:47.807Z,2.00
2023-05-13T15:00:16.218Z,1.90
2023-05-13T15:02:44.320Z,1.90
2023-05-13T15:05:12.691Z,1.80
2023-05-13T15:07:41.040Z,1.90
2023-05-13T15:10:09.752Z,2.00
2023-05-13T15:12:37.838Z,2.20
2023-05-13T15:15:06.707Z,2.10
2023-05-13T15:17:34.952Z,2.10
2023-05-13T15:20:03.263Z,2.00
2023-05-13T15:22:33.330Z,2.10
2023-05-13T15:25:02.295Z,2.30
2023-05-13T15:27:30.400Z,2.20
2023-05-13T15:29:58.501Z,2.00
2023-05-13T15:32:26.806Z,1.90
2023-05-13T15:34:55.013Z,2.30
2023-05-13T15:37:23.101Z,2.00
2023-05-13T15:39:51.192Z,2.20
2023-05-13T15:42:19.255Z,2.10
2023-05-13T15:44:47.323Z,1.80
2023-05-13T15:47:15.630Z,2.00
2023-05-13T15:49:43.826Z,2.20
2023-05-13T15:52:11.981Z,2.10
2023-05-13T15:54:40.005Z,2.20
2023-05-13T15:57:09.163Z,2.20
2023-05-13T15:59:37.216Z,2.10
2023-05-13T16:02:05.475Z,2.40
2023-05-13T16:04:33.756Z,2.00
2023-05-13T16:07:01.927Z,2.30
2023-05-13T16:09:29.965Z,2.20
2023-05-13T16:11:57.954Z,2.40
2023-05-13T16:14:26.312Z,1.80
2023-05-13T16:16:54.361Z,2.00
2023-05-13T16:19:22.811Z,2.00
2023-05-13T16:21:51.292Z,2.50
2023-05-13T16:24:19.344Z,2.10
2023-05-13T16:26:48.423Z,2.40
2023-05-13T16:29:16.594Z,2.30
2023-05-13T16:31:44.830Z,2.40
2023-05-13T16:34:12.986Z,2.50
2023-05-13T16:36:41.126Z,2.10
2023-05-13T16:39:09.171Z,2.10
2023-05-13T16:41:37.196Z,2.30
2023-05-13T16:44:05.271Z,2.50
2023-05-13T16:46:35.596Z,2.50
2023-05-13T16:49:03.779Z,2.50
2023-05-13T16:51:31.908Z,2.40
2023-05-13T16:54:00.135Z,2.30
2023-05-13T16:56:28.285Z,2.40
2023-05-13T16:58:56.341Z,2.20
2023-05-13T17:01:24.508Z,2.10
2023-05-13T17:03:52.638Z,2.20
2023-05-13T17:06:20.777Z,2.30
2023-05-13T17:08:48.751Z,2.10
2023-05-13T17:11:17.036Z,2.10
2023-05-13T17:13:45.575Z,2.50
2023-05-13T17:16:13.766Z,2.20
2023-05-13T17:18:41.882Z,2.20
2023-05-13T17:21:10.102Z,2.40
2023-05-13T17:23:38.214Z,2.20
2023-05-13T17:26:06.373Z,2.40
2023-05-13T17:28:34.621Z,2.50
2023-05-13T17:31:02.861Z,2.50
2023-05-13T17:33:31.033Z,2.40
2023-05-13T17:35:59.311Z,2.20
2023-05-13T17:38:27.403Z,2.50
2023-05-13T17:40:55.527Z,2.70
2023-05-13T17:43:23.618Z,2.90
2023-05-13T17:45:51.718Z,3.00
2023-05-13T17:48:20.062Z,2.60
2023-05-13T17:50:48.277Z,2.60
2023-05-13T17:53:16.409Z,2.30
2023-05-13T17:55:44.499Z,2.60
2023-05-13T17:58:12.564Z,2.70
2023-05-13T18:00:40.827Z,2.30
2023-05-13T18:03:08.912Z,2.50
2023-05-13T18:05:37.265Z,2.60
2023-05-13T18:08:05.510Z,3.10
2023-05-13T18:10:33.698Z,2.70
2023-05-13T18:13:03.023Z,3.10
2023-05-13T18:15:31.102Z,3.00
2023-05-13T18:17:59.184Z,2.70
2023-05-13T18:20:27.182Z,3.00
2023-05-13T18:22:55.286Z,2.80
2023-05-13T18:25:23.316Z,3.00
2023-05-13T18:27:51.445Z,2.80
2023-05-13T18:30:19.548Z,2.80
2023-05-13T18:32:48.233Z,3.20
2023-05-13T18:35:16.552Z,3.00
2023-05-13T18:37:44.696Z,2.80
2023-05-13T18:40:13.034Z,3.50
2023-05-13T18:42:41.138Z,2.80
2023-05-13T18:45:10.121Z,3.40
2023-05-13T18:47:38.253Z,3.00
2023-05-13T18:50:06.800Z,2.80
2023-05-13T18:52:34.951Z,3.20
2023-05-13T18:55:05.064Z,3.20
2023-05-13T18:57:33.182Z,2.90
2023-05-13T19:00:01.268Z,2.90
2023-05-13T19:02:30.053Z,2.70
2023-05-13T19:04:58.438Z,2.80
2023-05-13T19:07:26.731Z,2.50
2023-05-13T19:09:54.755Z,2.50
2023-05-13T19:12:22.769Z,2.40
2023-05-13T19:14:50.880Z,2.40
2023-05-13T19:17:19.069Z,2.40
2023-05-13T19:19:47.157Z,2.50
2023-05-13T19:22:15.191Z,2.70
2023-05-13T19:24:43.282Z,2.70
2023-05-13T19:27:11.480Z,2.60
2023-05-13T19:29:39.514Z,3.70
2023-05-13T19:32:07.700Z,3.60
2023-05-13T19:34:35.808Z,4.10
2023-05-13T19:37:05.683Z,3.60
2023-05-13T19:39:33.757Z,3.20
2023-05-13T19:42:01.843Z,3.30
2023-05-13T19:44:31.956Z,3.00
2023-05-13T19:47:00.142Z,2.90
2023-05-13T19:49:28.463Z,2.80
2023-05-13T19:51:57.579Z,3.00
2023-05-13T19:54:25.680Z,2.90
2023-05-13T19:56:53.871Z,3.10
2023-05-13T19:59:22.137Z,3.00
2023-05-13T20:01:50.316Z,2.80
2023-05-13T20:04:19.124Z,3.10
2023-05-13T20:06:47.198Z,3.30
2023-05-13T20:09:15.212Z,2.90
2023-05-13T20:11:43.300Z,3.40
2023-05-13T20:14:13.033Z,3.40
2023-05-13T20:16:41.769Z,3.70
2023-05-13T20:19:09.986Z,3.10
2023-05-13T20:21:38.181Z,3.70
2023-05-13T20:24:07.188Z,3.70
2023-05-13T20:26:35.815Z,4.40
2023-05-13T20:29:04.473Z,3.60
2023-05-13T20:31:32.575Z,4.00
2023-05-13T20:34:00.721Z,3.70
2023-05-13T20:36:28.719Z,3.10
2023-05-13T20:38:56.727Z,3.00
2023-05-13T20:41:24.879Z,3.30
2023-05-13T20:43:52.894Z,3.50
2023-05-13T20:46:21.066Z,3.00
2023-05-13T20:48:49.206Z,3.50
2023-05-13T20:51:17.312Z,3.60
2023-05-13T20:53:47.421Z,3.20
2023-05-13T20:56:15.502Z,3.50
2023-05-13T20:58:43.561Z,3.40
2023-05-13T21:01:11.758Z,3.40
2023-05-13T21:03:39.865Z,3.30
2023-05-13T21:06:08.044Z,3.70
2023-05-13T21:08:37.127Z,3.60
2023-05-13T21:11:06.528Z,3.40
2023-05-13T21:13:34.697Z,3.40
2023-05-13T21:16:06.237Z,4.10
2023-05-13T21:18:34.492Z,3.60
2023-05-13T21:21:03.056Z,3.40
2023-05-13T21:23:31.152Z,3.90
2023-05-13T21:25:59.196Z,3.50
2023-05-13T21:28:27.276Z,3.60
2023-05-13T21:30:55.458Z,3.80
2023-05-13T21:33:23.652Z,3.40
2023-05-13T21:35:51.909Z,3.30
2023-05-13T21:38:20.182Z,3.80
2023-05-13T21:40:48.252Z,3.50
2023-05-13T21:43:16.321Z,4.00
2023-05-13T21:45:48.033Z,3.80
2023-05-13T21:48:16.302Z,3.70
2023-05-13T21:50:44.440Z,3.80
2023-05-13T21:53:12.612Z,3.40
2023-05-13T21:55:40.814Z,3.60
2023-05-13T21:58:08.928Z,3.70
2023-05-13T22:00:37.155Z,4.50
2023-05-13T22:03:06.256Z,5.20
2023-05-13T22:05:34.448Z,4.90
2023-05-13T22:08:02.575Z,6.10
2023-05-13T22:10:31.039Z,6.20
2023-05-13T22:12:59.375Z,6.60
2023-05-13T22:15:27.462Z,5.60
2023-05-13T22:17:55.672Z,5.80
2023-05-13T22:20:24.452Z,5.00
2023-05-13T22:22:52.901Z,5.40
2023-05-13T22:25:21.336Z,5.00
2023-05-13T22:27:51.121Z,4.40
2023-05-13T22:30:19.163Z,4.70
2023-05-13T22:32:47.302Z,4.50
2023-05-13T22:35:15.467Z,5.50
2023-05-13T22:37:43.594Z,4.90
2023-05-13T22:40:12.254Z,4.40
2023-05-13T22:42:40.356Z,4.00
2023-05-13T22:45:09.025Z,5.30
2023-05-13T22:47:37.286Z,4.60
2023-05-13T22:50:05.855Z,4.90
2023-05-13T22:52:33.982Z,4.60
2023-05-13T22:55:02.092Z,5.20
2023-05-13T22:57:30.114Z,4.80
2023-05-13T22:59:58.189Z,5.10
2023-05-13T23:02:26.216Z,4.70
2023-05-13T23:04:54.382Z,4.90
2023-05-13T23:07:22.399Z,4.80
2023-05-13T23:09:50.577Z,5.00
2023-05-13T23:12:18.679Z,4.70
2023-05-13T23:14:46.750Z,4.70
2023-05-13T23:17:14.848Z,4.90
2023-05-13T23:19:42.923Z,4.30
2023-05-13T23:22:11.348Z,4.60
2023-05-13T23:24:39.388Z,4.30
2023-05-13T23:27:07.416Z,5.30
2023-05-13T23:29:36.325Z,4.40
2023-05-13T23:32:06.548Z,4.70
2023-05-13T23:34:35.131Z,4.50
2023-05-13T23:37:03.308Z,4.30
2023-05-13T23:39:31.426Z,4.60
2023-05-13T23:41:59.444Z,4.70
2023-05-13T23:44:27.481Z,4.20
2023-05-13T23:46:55.640Z,4.10
2023-05-13T23:49:23.708Z,3.90
2023-05-13T23:51:51.745Z,4.10
2023-05-13T23:54:19.769Z,4.80
2023-05-13T23:56:47.823Z,4.30
2023-05-13T23:59:15.859Z,4.00
